Time;durP1;ratioP1;P1;durP2;ratioP2;P2;SDS_P1;SDS_P2;PMS_P1;PMS_P2;Temp;Humidity;BMP_temperature;BMP_pressure;BME280_temperature;BME280_humidity;BME280_pressure;Samples;Min_cycle;Max_cycle;Signal;HPM_P1;HPM_P2
2022/11/30 00:01:07;;;;;;;;;;;;;;;;;;4953961;28;1976;-44
2022/11/30 00:03:36;;;;;;;;;;;;;;;;;;4953653;28;1988;-44
2022/11/30 00:06:04;;;;;;;;;;;;;;;;;;4953980;28;1958;-44
2022/11/30 00:08:31;;;;;;;;;;;;;;;;;;4953709;28;2020;-46
2022/11/30 00:10:58;;;;;;;;;;;;;;;;;;4954130;28;2015;-46
2022/11/30 00:13:25;;;;;;;;;;;;;;;;;;4953877;28;1846;-47
2022/11/30 00:15:52;;;;;;;;;;;;;;;;;;4953532;28;2044;-45
2022/11/30 00:18:19;;;;;;;;;;;;;;;;;;4961096;28;1984;-44
2022/11/30 00:20:49;;;;;;;;;;;;;;;;;;4973160;28;2311;-47
2022/11/30 00:23:18;;;;;;;;;;;;;;;;;;4972889;28;1984;-45
2022/11/30 00:25:45;;;;;;;;;;;;;;;;;;4972705;28;1842;-44
2022/11/30 00:28:12;;;;;;;;;;;;;;;;;;4973082;28;2175;-46
2022/11/30 00:30:39;;;;;;;;;;;;;;;;;;4972602;28;2227;-47
2022/11/30 00:33:06;;;;;;;;;;;;;;;;;;4972437;28;1930;-44
2022/11/30 00:35:33;;;;;;;;;;;;;;;;;;4972956;28;2101;-45
2022/11/30 00:38:02;;;;;;;;;;;;;;;;;;4972884;28;2088;-42
2022/11/30 00:40:29;;;;;;;;;;;;;;;;;;4972521;28;1907;-46
2022/11/30 00:42:56;;;;;;;;;;;;;;;;;;4972848;28;1981;-44
2022/11/30 00:45:23;;;;;;;;;;;;;;;;;;4972352;28;2080;-47
2022/11/30 00:47:50;;;;;;;;;;;;;;;;;;4954186;28;2334;-45
2022/11/30 00:50:17;;;;;;;;;;;;;;;;;;4953472;28;2080;-46
2022/11/30 00:52:44;;;;;;;;;;;;;;;;;;4953284;28;2069;-44
2022/11/30 00:55:11;;;;;;;;;;;;;;;;;;4953509;28;2103;-44
2022/11/30 00:57:39;;;;;;;;;;;;;;;;;;4952961;28;1461;-43
2022/11/30 01:00:06;;;;;;;;;;;;;;;;;;4953122;28;1911;-47
2022/11/30 01:02:34;;;;;;;;;;;;;;;;;;4953134;28;1967;-46
2022/11/30 01:05:01;;;;;;;;;;;;;;;;;;4953084;28;1894;-46
2022/11/30 01:07:28;;;;;;;;;;;;;;;;;;4953244;28;1900;-46
2022/11/30 01:09:55;;;;;;;;;;;;;;;;;;4953017;28;2131;-45
2022/11/30 01:12:22;;;;;;;;;;;;;;;;;;4953232;28;1912;-45
2022/11/30 01:14:49;;;;;;;;;;;;;;;;;;4953244;28;2174;-44
2022/11/30 01:17:16;;;;;;;;;;;;;;;;;;4953205;28;2116;-47
2022/11/30 01:19:43;;;;;;;;;;;;;;;;;;4971323;28;1898;-44
2022/11/30 01:22:10;;;;;;;;;;;;;;;;;;4972116;28;1770;-45
2022/11/30 01:24:37;;;;;;;;;;;;;;;;;;4971933;28;1925;-47
2022/11/30 01:27:04;;;;;;;;;;;;;;;;;;4972100;28;1980;-49
2022/11/30 01:29:31;;;;;;;;;;;;;;;;;;4971753;28;2063;-43
2022/11/30 01:31:58;;;;;;;;;;;;;;;;;;4972348;28;2128;-46
2022/11/30 01:34:25;;;;;;;;;;;;;;;;;;4972029;28;2051;-48
2022/11/30 01:36:52;;;;;;;;;;;;;;;;;;4971885;28;2105;-46
2022/11/30 01:39:19;;;;;;;;;;;;;;;;;;4972213;28;1959;-43
2022/11/30 01:41:46;;;;;;;;;;;;;;;;;;4972282;28;2047;-49
2022/11/30 01:44:13;;;;;;;;;;;;;;;;;;4972065;28;1960;-45
2022/11/30 01:46:50;;;;;;;;;;;;;;;;;;4972274;28;2076;-46
2022/11/30 01:49:22;;;;;;;;;;;;;;;;;;4972218;28;1985;-46
2022/11/30 01:51:51;;;;;;;;;;;;;;;;;;4972116;28;2064;-45
2022/11/30 01:54:21;;;;;;;;;;;;;;;;;;4972067;28;2208;-46
2022/11/30 01:56:51;;;;;;;;;;;;;;;;;;4973457;28;2198;-44
2022/11/30 01:59:20;;;;;;;;;;;;;;;;;;4975775;28;2015;-45
2022/11/30 02:01:47;;;;;;;;;;;;;;;;;;4975597;28;2152;-44
2022/11/30 02:04:18;;;;;;;;;;;;;;;;;;4975396;28;2087;-47
2022/11/30 02:06:46;;;;;;;;;;;;;;;;;;4975384;28;2133;-46
2022/11/30 02:09:14;;;;;;;;;;;;;;;;;;4975305;28;1988;-44
2022/11/30 02:11:41;;;;;;;;;;;;;;;;;;4975386;28;2070;-46
2022/11/30 02:14:31;;;;;;;;;;;;;;;;;;4975265;28;2003;-43
2022/11/30 02:17:13;;;;;;;;;;;;;;;;;;4972387;28;1889;-44
2022/11/30 02:19:46;;;;;;;;;;;;;;;;;;4974963;28;1890;-43
2022/11/30 02:22:32;;;;;;;;;;;;;;;;;;4975003;28;2099;-46
2022/11/30 02:25:14;;;;;;;;;;;;;;;;;;4974904;28;1859;-44
2022/11/30 02:27:59;;;;;;;;;;;;;;;;;;4974943;28;1927;-43
2022/11/30 02:30:28;;;;;;;;;;;;;;;;;;4974989;28;2119;-46
2022/11/30 02:32:58;;;;;;;;;;;;;;;;;;4975012;28;1928;-45
2022/11/30 02:35:28;;;;;;;;;;;;;;;;;;4974918;28;1725;-47
2022/11/30 02:37:56;;;;;;;;;;;;;;;;;;4974847;28;2066;-45
2022/11/30 02:40:26;;;;;;;;;;;;;;;;;;4974985;28;2088;-47
2022/11/30 02:42:54;;;;;;;;;;;;;;;;;;4974745;28;1955;-43
2022/11/30 02:45:30;;;;;;;;;;;;;;;;;;4974926;28;2010;-45
2022/11/30 02:48:10;;;;;;;;;;;;;;;;;;4974331;28;1854;-45
2022/11/30 02:50:44;;;;;;;;;;;;;;;;;;4974486;28;1898;-47
2022/11/30 02:53:12;;;;;;;;;;;;;;;;;;4974660;28;1994;-46
2022/11/30 02:55:39;;;;;;;;;;;;;;;;;;4974586;28;2077;-46
2022/11/30 02:58:06;;;;;;;;;;;;;;;;;;4974178;28;2069;-48
2022/11/30 03:00:33;;;;;;;;;;;;;;;;;;4974775;28;2215;-43
2022/11/30 03:03:00;;;;;;;;;;;;;;;;;;4974371;28;1682;-45
2022/11/30 03:05:27;;;;;;;;;;;;;;;;;;4974455;28;1921;-47
2022/11/30 03:07:54;;;;;;;;;;;;;;;;;;4974171;28;1965;-45
2022/11/30 03:10:22;;;;;;;;;;;;;;;;;;4974213;28;2047;-45
2022/11/30 03:12:49;;;;;;;;;;;;;;;;;;4974480;28;1969;-45
2022/11/30 03:15:16;;;;;;;;;;;;;;;;;;4974404;28;2139;-48
2022/11/30 03:17:43;;;;;;;;;;;;;;;;;;4971125;28;2175;-42
2022/11/30 03:20:10;;;;;;;;;;;;;;;;;;4954881;29;2062;-48
2022/11/30 03:22:37;;;;;;;;;;;;;;;;;;4954733;28;2150;-44
2022/11/30 03:25:04;;;;;;;;;;;;;;;;;;4954408;28;1928;-45
2022/11/30 03:27:34;;;;;;;;;;;;;;;;;;4954596;28;1826;-47
2022/11/30 03:30:01;;;;;;;;;;;;;;;;;;4954869;28;2225;-49
2022/11/30 03:32:29;;;;;;;;;;;;;;;;;;4954932;28;1962;-44
2022/11/30 03:34:56;;;;;;;;;;;;;;;;;;4954449;28;2061;-47
2022/11/30 03:37:24;;;;;;;;;;;;;;;;;;4954166;28;2149;-44
2022/11/30 03:39:51;;;;;;;;;;;;;;;;;;4954227;28;1920;-44
2022/11/30 03:42:23;;;;;;;;;;;;;;;;;;4954212;28;1866;-45
2022/11/30 03:44:50;;;;;;;;;;;;;;;;;;4954550;28;1999;-44
2022/11/30 03:47:17;;;;;;;;;;;;;;;;;;4954318;28;2128;-46
2022/11/30 03:49:44;;;;;;;;;;;;;;;;;;4954375;28;2060;-44
2022/11/30 03:52:11;;;;;;;;;;;;;;;;;;4968751;28;2034;-44
2022/11/30 03:54:38;;;;;;;;;;;;;;;;;;4955374;28;2059;-45
2022/11/30 03:57:05;;;;;;;;;;;;;;;;;;4973465;28;2090;-47
2022/11/30 03:59:32;;;;;;;;;;;;;;;;;;4973344;28;1983;-46
2022/11/30 04:01:59;;;;;;;;;;;;;;;;;;4973359;28;2185;-45
2022/11/30 04:04:27;;;;;;;;;;;;;;;;;;4973492;28;2017;-44
2022/11/30 04:06:54;;;;;;;;;;;;;;;;;;4973307;28;2134;-44
2022/11/30 04:09:21;;;;;;;;;;;;;;;;;;4973379;28;1972;-44
2022/11/30 04:11:48;;;;;;;;;;;;;;;;;;4973130;28;2144;-45
2022/11/30 04:14:15;;;;;;;;;;;;;;;;;;4973143;28;1930;-42
2022/11/30 04:16:42;;;;;;;;;;;;;;;;;;4973026;28;1924;-45
2022/11/30 04:19:09;;;;;;;;;;;;;;;;;;4958595;28;1886;-46
2022/11/30 04:21:36;;;;;;;;;;;;;;;;;;4953865;28;1978;-45
2022/11/30 04:24:04;;;;;;;;;;;;;;;;;;4953336;28;2123;-45
2022/11/30 04:26:31;;;;;;;;;;;;;;;;;;4964209;28;2019;-43
2022/11/30 04:28:58;;;;;;;;;;;;;;;;;;4972712;28;1864;-47
2022/11/30 04:31:29;;;;;;;;;;;;;;;;;;4972674;28;2005;-44
2022/11/30 04:33:56;;;;;;;;;;;;;;;;;;4972933;28;2084;-47
2022/11/30 04:36:23;;;;;;;;;;;;;;;;;;4972392;28;2080;-47
2022/11/30 04:38:50;;;;;;;;;;;;;;;;;;4973002;28;2144;-46
2022/11/30 04:41:18;;;;;;;;;;;;;;;;;;4972974;28;1715;-44
2022/11/30 04:43:45;;;;;;;;;;;;;;;;;;4972494;28;1830;-47
2022/11/30 04:46:12;;;;;;;;;;;;;;;;;;4972594;28;2073;-46
2022/11/30 04:48:39;;;;;;;;;;;;;;;;;;4972156;28;2058;-45
2022/11/30 04:51:07;;;;;;;;;;;;;;;;;;4972665;28;2043;-45
2022/11/30 04:53:36;;;;;;;;;;;;;;;;;;4972551;28;1431;-46
2022/11/30 04:56:04;;;;;;;;;;;;;;;;;;4972353;28;2010;-45
2022/11/30 04:58:31;;;;;;;;;;;;;;;;;;4972147;28;2004;-46
2022/11/30 05:00:58;;;;;;;;;;;;;;;;;;4972277;28;2049;-47
2022/11/30 05:03:25;;;;;;;;;;;;;;;;;;4972341;28;1945;-46
2022/11/30 05:05:52;;;;;;;;;;;;;;;;;;4972538;28;1594;-44
2022/11/30 05:08:20;;;;;;;;;;;;;;;;;;4972403;28;2206;-46
2022/11/30 05:10:50;;;;;;;;;;;;;;;;;;4972361;28;1930;-45
2022/11/30 05:13:19;;;;;;;;;;;;;;;;;;4972576;28;1998;-44
2022/11/30 05:15:46;;;;;;;;;;;;;;;;;;4972001;28;2038;-45
2022/11/30 05:18:14;;;;;;;;;;;;;;;;;;4965579;28;2019;-44
2022/11/30 05:20:45;;;;;;;;;;;;;;;;;;4953016;28;2176;-46
2022/11/30 05:23:12;;;;;;;;;;;;;;;;;;4952994;28;1819;-45
2022/11/30 05:25:39;;;;;;;;;;;;;;;;;;4952712;28;2006;-50
2022/11/30 05:28:06;;;;;;;;;;;;;;;;;;4952854;28;1885;-44
2022/11/30 05:30:33;;;;;;;;;;;;;;;;;;4952957;28;1832;-45
2022/11/30 05:33:00;;;;;;;;;;;;;;;;;;4956097;28;2153;-45
2022/11/30 05:35:27;;;;;;;;;;;;;;;;;;4956531;28;2055;-46
2022/11/30 05:37:57;;;;;;;;;;;;;;;;;;4956266;28;1890;-44
2022/11/30 05:40:26;;;;;;;;;;;;;;;;;;4956633;28;2253;-46
2022/11/30 05:42:55;;;;;;;;;;;;;;;;;;4956310;28;1785;-46
2022/11/30 05:45:22;;;;;;;;;;;;;;;;;;4956781;28;2050;-46
2022/11/30 05:47:50;;;;;;;;;;;;;;;;;;4956371;28;1903;-45
2022/11/30 05:50:17;;;;;;;;;;;;;;;;;;4956301;28;2143;-44
2022/11/30 05:52:51;;;;;;;;;;;;;;;;;;4971157;28;2126;-45
2022/11/30 05:55:18;;;;;;;;;;;;;;;;;;4956227;28;1970;-45
2022/11/30 05:57:45;;;;;;;;;;;;;;;;;;4956185;28;2072;-45
2022/11/30 06:00:13;;;;;;;;;;;;;;;;;;4953865;28;10519;-46
2022/11/30 06:02:40;;;;;;;;;;;;;;;;;;4975642;28;1779;-46
2022/11/30 06:05:08;;;;;;;;;;;;;;;;;;4975221;28;1918;-46
2022/11/30 06:07:35;;;;;;;;;;;;;;;;;;4975322;28;1896;-44
2022/11/30 06:10:02;;;;;;;;;;;;;;;;;;4975356;28;2050;-45
2022/11/30 06:12:30;;;;;;;;;;;;;;;;;;4975042;28;1906;-47
2022/11/30 06:14:57;;;;;;;;;;;;;;;;;;4975382;28;2015;-47
2022/11/30 06:17:24;;;;;;;;;;;;;;;;;;4975385;28;2101;-48
2022/11/30 06:19:51;;;;;;;;;;;;;;;;;;4975502;28;2204;-46
2022/11/30 06:22:18;;;;;;;;;;;;;;;;;;4975148;28;2096;-45
2022/11/30 06:24:45;;;;;;;;;;;;;;;;;;4975007;28;2008;-46
2022/11/30 06:27:13;;;;;;;;;;;;;;;;;;4975237;28;1847;-44
2022/11/30 06:29:40;;;;;;;;;;;;;;;;;;4991664;28;2095;-47
2022/11/30 06:32:07;;;;;;;;;;;;;;;;;;4994400;28;1899;-46
2022/11/30 06:34:34;;;;;;;;;;;;;;;;;;4994095;28;2041;-48
2022/11/30 06:37:01;;;;;;;;;;;;;;;;;;4994135;28;1807;-45
2022/11/30 06:39:28;;;;;;;;;;;;;;;;;;4993543;28;1773;-46
2022/11/30 06:42:15;;;;;;;;;;;;;;;;;;4993730;28;2230;-45
2022/11/30 06:44:42;;;;;;;;;;;;;;;;;;4994639;28;1941;-47
2022/11/30 06:47:10;;;;;;;;;;;;;;;;;;4993787;28;1784;-45
2022/11/30 06:49:38;;;;;;;;;;;;;;;;;;4993746;28;1886;-43
2022/11/30 06:52:05;;;;;;;;;;;;;;;;;;4993788;28;1980;-45
2022/11/30 06:54:32;;;;;;;;;;;;;;;;;;4993856;28;2014;-44
2022/11/30 06:57:00;;;;;;;;;;;;;;;;;;4993667;28;1919;-45
2022/11/30 06:59:27;;;;;;;;;;;;;;;;;;4993330;28;2136;-45
2022/11/30 07:01:54;;;;;;;;;;;;;;;;;;4993586;28;1800;-45
2022/11/30 07:04:21;;;;;;;;;;;;;;;;;;4993923;28;2075;-45
2022/11/30 07:06:48;;;;;;;;;;;;;;;;;;4993976;28;2122;-45
2022/11/30 07:09:15;;;;;;;;;;;;;;;;;;4992103;28;2018;-44
2022/11/30 07:11:42;;;;;;;;;;;;;;;;;;4993380;28;2118;-45
2022/11/30 07:14:09;;;;;;;;;;;;;;;;;;4993783;28;2015;-45
2022/11/30 07:16:36;;;;;;;;;;;;;;;;;;4993356;28;2018;-46
2022/11/30 07:19:06;;;;;;;;;;;;;;;;;;4979530;28;1962;-47
2022/11/30 07:21:33;;;;;;;;;;;;;;;;;;4973798;28;2061;-48
2022/11/30 07:26:46;;;;;;;;;;;;;;;;;;4974096;28;1833;-46
2022/11/30 07:29:13;;;;;;;;;;;;;;;;;;4973543;28;2020;-46
2022/11/30 07:31:40;;;;;;;;;;;;;;;;;;4973776;28;1911;-47
2022/11/30 07:34:08;;;;;;;;;;;;;;;;;;4973798;28;2021;-45
2022/11/30 07:36:35;;;;;;;;;;;;;;;;;;4973620;28;2141;-46
2022/11/30 07:39:02;;;;;;;;;;;;;;;;;;4973414;28;1891;-48
2022/11/30 07:41:30;;;;;;;;;;;;;;;;;;4973280;28;2008;-45
2022/11/30 07:44:02;;;;;;;;;;;;;;;;;;4972663;28;2157;-47
2022/11/30 07:46:30;;;;;;;;;;;;;;;;;;4973786;28;2081;-46
2022/11/30 07:48:57;;;;;;;;;;;;;;;;;;4973737;28;1936;-45
2022/11/30 07:51:24;;;;;;;;;;;;;;;;;;4973342;28;1994;-46
2022/11/30 07:53:51;;;;;;;;;;;;;;;;;;4972823;28;2014;-45
2022/11/30 07:56:19;;;;;;;;;;;;;;;;;;4973443;28;2015;-46
2022/11/30 07:58:46;;;;;;;;;;;;;;;;;;4973172;28;1840;-45
2022/11/30 08:01:15;;;;;;;;;;;;;;;;;;4973507;28;2093;-44
2022/11/30 08:03:42;;;;;;;;;;;;;;;;;;4973096;28;1891;-45
2022/11/30 08:06:12;;;;;;;;;;;;;;;;;;4972867;28;1926;-47
2022/11/30 08:08:40;;;;;;;;;;;;;;;;;;4972989;28;2122;-45
2022/11/30 08:11:08;;;;;;;;;;;;;;;;;;4973023;28;1989;-48
2022/11/30 08:13:35;;;;;;;;;;;;;;;;;;4973056;28;2215;-45
2022/11/30 08:16:03;;;;;;;;;;;;;;;;;;4973006;28;1968;-46
2022/11/30 08:18:32;;;;;;;;;;;;;;;;;;4981533;28;1890;-46
2022/11/30 08:20:59;;;;;;;;;;;;;;;;;;4991826;28;1858;-45
2022/11/30 08:23:30;;;;;;;;;;;;;;;;;;4992043;28;1898;-44
2022/11/30 08:26:05;;;;;;;;;;;;;;;;;;4992066;28;1936;-45
2022/11/30 08:28:34;;;;;;;;;;;;;;;;;;4991980;28;1964;-45
2022/11/30 08:31:03;;;;;;;;;;;;;;;;;;4992171;28;1977;-47
2022/11/30 08:33:31;;;;;;;;;;;;;;;;;;4991380;28;1899;-45
2022/11/30 08:36:08;;;;;;;;;;;;;;;;;;4991196;28;2129;-46
2022/11/30 08:38:36;;;;;;;;;;;;;;;;;;4990197;28;1659;-48
2022/11/30 08:41:04;;;;;;;;;;;;;;;;;;4991170;28;1919;-47
2022/11/30 08:43:31;;;;;;;;;;;;;;;;;;4991439;28;1954;-45
2022/11/30 08:45:58;;;;;;;;;;;;;;;;;;4991891;28;2034;-45
2022/11/30 08:48:25;;;;;;;;;;;;;;;;;;4991834;28;1868;-45
2022/11/30 08:50:53;;;;;;;;;;;;;;;;;;4992067;28;1929;-44
2022/11/30 08:53:20;;;;;;;;;;;;;;;;;;4991460;28;2336;-45
2022/11/30 08:56:01;;;;;;;;;;;;;;;;;;4991686;28;1900;-45
2022/11/30 08:58:32;;;;;;;;;;;;;;;;;;4991415;28;2897;-45
2022/11/30 09:01:08;;;;;;;;;;;;;;;;;;4991759;28;1931;-45
2022/11/30 09:03:36;;;;;;;;;;;;;;;;;;4991650;28;2047;-46
2022/11/30 09:06:07;;;;;;;;;;;;;;;;;;4991518;28;1994;-46
2022/11/30 09:08:34;;;;;;;;;;;;;;;;;;4991672;28;2039;-43
2022/11/30 09:11:13;;;;;;;;;;;;;;;;;;4991578;28;1960;-45
2022/11/30 09:13:41;;;;;;;;;;;;;;;;;;4991283;28;1949;-44
2022/11/30 09:16:09;;;;;;;;;;;;;;;;;;4991325;28;1873;-44
2022/11/30 09:18:36;;;;;;;;;;;;;;;;;;4990990;28;5358;-45
2022/11/30 09:21:05;;;;;;;;;;;;;;;;;;4991313;28;1944;-44
2022/11/30 09:23:32;;;;;;;;;;;;;;;;;;4991494;28;1769;-47
2022/11/30 09:26:00;;;;;;;;;;;;;;;;;;4991564;28;2058;-47
2022/11/30 09:28:29;;;;;;;;;;;;;;;;;;4991719;28;2064;-47
2022/11/30 09:31:04;;;;;;;;;;;;;;;;;;4990822;28;1716;-46
2022/11/30 09:33:31;;;;;;;;;;;;;;;;;;4991187;28;2141;-43
2022/11/30 09:35:59;;;;;;;;;;;;;;;;;;4991301;28;2055;-45
2022/11/30 09:38:27;;;;;;;;;;;;;;;;;;4990770;28;2947;-45
2022/11/30 09:40:55;;;;;;;;;;;;;;;;;;4991520;28;2020;-46
2022/11/30 09:43:37;;;;;;;;;;;;;;;;;;4991403;28;2115;-44
2022/11/30 09:46:05;;;;;;;;;;;;;;;;;;4991577;28;2089;-46
2022/11/30 09:48:42;;;;;;;;;;;;;;;;;;4990861;28;2218;-47
2022/11/30 09:51:16;;;;;;;;;;;;;;;;;;4991118;28;1392;-45
2022/11/30 09:53:44;;;;;;;;;;;;;;;;;;4990818;28;2068;-44
2022/11/30 09:56:31;;;;;;;;;;;;;;;;;;5006582;28;2185;-44
2022/11/30 09:59:05;;;;;;;;;;;;;;;;;;4990873;28;1942;-45
2022/11/30 10:01:35;;;;;;;;;;;;;;;;;;4991078;28;2185;-48
2022/11/30 10:04:03;;;;;;;;;;;;;;;;;;4991372;28;2014;-44
2022/11/30 10:06:41;;;;;;;;;;;;;;;;;;4990964;28;1904;-45
2022/11/30 10:09:17;;;;;;;;;;;;;;;;;;4991014;28;2133;-45
2022/11/30 10:12:14;;;;;;;;;;;;;;;;;;4990918;28;1928;-47
2022/11/30 10:14:59;;;;;;;;;;;;;;;;;;4986205;28;1873;-43
2022/11/30 10:17:32;;;;;;;;;;;;;;;;;;4991405;28;1824;-45
2022/11/30 10:20:05;;;;;;;;;;;;;;;;;;4974870;28;1875;-45
2022/11/30 10:22:35;;;;;;;;;;;;;;;;;;4975096;28;1952;-46
2022/11/30 10:25:15;;;;;;;;;;;;;;;;;;4974774;28;2036;-46
2022/11/30 10:27:49;;;;;;;;;;;;;;;;;;4974416;28;1976;-46
2022/11/30 10:30:21;;;;;;;;;;;;;;;;;;4974960;28;1848;-45
2022/11/30 10:32:50;;;;;;;;;;;;;;;;;;4974806;28;1911;-46
2022/11/30 10:35:17;;;;;;;;;;;;;;;;;;4974888;28;1968;-46
2022/11/30 10:37:45;;;;;;;;;;;;;;;;;;4974344;28;1994;-46
2022/11/30 10:40:16;;;;;;;;;;;;;;;;;;4974955;28;2007;-47
2022/11/30 10:42:49;;;;;;;;;;;;;;;;;;4974152;28;1976;-44
2022/11/30 10:45:18;;;;;;;;;;;;;;;;;;4974755;28;2240;-45
2022/11/30 10:47:48;;;;;;;;;;;;;;;;;;4974432;28;1920;-44
2022/11/30 10:50:16;;;;;;;;;;;;;;;;;;4974490;28;2025;-45
2022/11/30 10:52:46;;;;;;;;;;;;;;;;;;4974545;28;2116;-48
2022/11/30 10:55:20;;;;;;;;;;;;;;;;;;4974224;28;2216;-46
2022/11/30 10:57:50;;;;;;;;;;;;;;;;;;4988886;28;1865;-45
2022/11/30 11:00:17;;;;;;;;;;;;;;;;;;4974413;28;1954;-44
2022/11/30 11:02:47;;;;;;;;;;;;;;;;;;4974254;28;2156;-43
2022/11/30 11:05:16;;;;;;;;;;;;;;;;;;4974345;28;1867;-46
2022/11/30 11:07:44;;;;;;;;;;;;;;;;;;4974176;28;2108;-44
2022/11/30 11:10:16;;;;;;;;;;;;;;;;;;4973769;28;1904;-47
2022/11/30 11:12:50;;;;;;;;;;;;;;;;;;4973902;28;1936;-45
2022/11/30 11:15:18;;;;;;;;;;;;;;;;;;4973765;28;2026;-46
2022/11/30 11:17:46;;;;;;;;;;;;;;;;;;4973345;28;2123;-46
2022/11/30 11:20:33;;;;;;;;;;;;;;;;;;4972053;28;1858;-44
2022/11/30 11:23:02;;;;;;;;;;;;;;;;;;4972081;28;2051;-45
2022/11/30 11:25:34;;;;;;;;;;;;;;;;;;4972191;28;1871;-47
2022/11/30 11:28:03;;;;;;;;;;;;;;;;;;4972074;28;2119;-45
2022/11/30 11:30:31;;;;;;;;;;;;;;;;;;4971563;28;1906;-46
2022/11/30 11:33:13;;;;;;;;;;;;;;;;;;4971518;28;2063;-45
2022/11/30 11:35:41;;;;;;;;;;;;;;;;;;4971863;28;2075;-45
2022/11/30 11:38:25;;;;;;;;;;;;;;;;;;4971978;28;2005;-45
2022/11/30 11:40:55;;;;;;;;;;;;;;;;;;4972332;28;2042;-46
2022/11/30 11:43:23;;;;;;;;;;;;;;;;;;4972037;28;1956;-48
2022/11/30 11:45:52;;;;;;;;;;;;;;;;;;4986910;28;1805;-45
2022/11/30 11:48:25;;;;;;;;;;;;;;;;;;4973248;28;1875;-45
2022/11/30 11:51:02;;;;;;;;;;;;;;;;;;4987403;28;1786;-45
2022/11/30 11:53:48;;;;;;;;;;;;;;;;;;4972182;28;1983;-45
2022/11/30 11:56:24;;;;;;;;;;;;;;;;;;4972587;28;1925;-47
2022/11/30 11:59:00;;;;;;;;;;;;;;;;;;4973528;28;2082;-46
2022/11/30 12:01:46;;;;;;;;;;;;;;;;;;4972789;28;1942;-47
2022/11/30 12:04:33;;;;;;;;;;;;;;;;;;4973366;28;1818;-45
2022/11/30 12:07:02;;;;;;;;;;;;;;;;;;4973171;28;1993;-44
2022/11/30 12:09:49;;;;;;;;;;;;;;;;;;4973071;28;1714;-45
2022/11/30 12:12:16;;;;;;;;;;;;;;;;;;4973150;28;1761;-45
2022/11/30 12:14:43;;;;;;;;;;;;;;;;;;4972803;28;2056;-48
2022/11/30 12:17:29;;;;;;;;;;;;;;;;;;4972773;28;2232;-44
2022/11/30 12:20:10;;;;;;;;;;;;;;;;;;4972804;28;2008;-49
2022/11/30 12:22:56;;;;;;;;;;;;;;;;;;4973084;28;1891;-45
2022/11/30 12:25:27;;;;;;;;;;;;;;;;;;4972780;28;1966;-46
2022/11/30 12:27:54;;;;;;;;;;;;;;;;;;4972871;28;1959;-45
2022/11/30 12:30:44;;;;;;;;;;;;;;;;;;4972145;28;2005;-48
2022/11/30 12:33:32;;;;;;;;;;;;;;;;;;4971401;28;2098;-45
2022/11/30 12:36:05;;;;;;;;;;;;;;;;;;4971624;28;1981;-45
2022/11/30 12:38:32;;;;;;;;;;;;;;;;;;4971506;28;1868;-45
2022/11/30 12:41:14;;;;;;;;;;;;;;;;;;4971280;28;2029;-45
2022/11/30 12:44:00;;;;;;;;;;;;;;;;;;4972180;28;1930;-46
2022/11/30 12:46:27;;;;;;;;;;;;;;;;;;4972434;28;1900;-44
2022/11/30 12:49:07;;;;;;;;;;;;;;;;;;4972557;28;2280;-45
2022/11/30 12:52:01;;;;;;;;;;;;;;;;;;4971929;28;2135;-45
2022/11/30 12:54:43;;;;;;;;;;;;;;;;;;4971256;28;1911;-44
2022/11/30 12:57:16;;;;;;;;;;;;;;;;;;4972159;28;2136;-47
2022/11/30 13:00:03;;;;;;;;;;;;;;;;;;4972354;28;1854;-48
2022/11/30 13:02:36;;;;;;;;;;;;;;;;;;4972969;28;1814;-46
2022/11/30 13:05:05;;;;;;;;;;;;;;;;;;4972180;28;1887;-45
2022/11/30 13:07:36;;;;;;;;;;;;;;;;;;4972243;28;2169;-46
2022/11/30 13:10:16;;;;;;;;;;;;;;;;;;4972292;28;2157;-43
2022/11/30 13:12:44;;;;;;;;;;;;;;;;;;4972124;28;1980;-45
2022/11/30 13:15:14;;;;;;;;;;;;;;;;;;4972278;28;1998;-44
2022/11/30 13:17:42;;;;;;;;;;;;;;;;;;4974406;28;2120;-46
2022/11/30 13:20:09;;;;;;;;;;;;;;;;;;4991706;28;2128;-45
2022/11/30 13:22:37;;;;;;;;;;;;;;;;;;4991228;28;1909;-45
2022/11/30 13:25:07;;;;;;;;;;;;;;;;;;4991549;28;1942;-48
2022/11/30 13:27:39;;;;;;;;;;;;;;;;;;4991186;28;1973;-46
2022/11/30 13:30:18;;;;;;;;;;;;;;;;;;4991201;28;2117;-44
2022/11/30 13:32:45;;;;;;;;;;;;;;;;;;4990553;28;1903;-45
2022/11/30 13:35:28;;;;;;;;;;;;;;;;;;4990029;28;2052;-47
2022/11/30 13:38:02;;;;;;;;;;;;;;;;;;4990034;28;1986;-44
2022/11/30 13:40:53;;;;;;;;;;;;;;;;;;4990458;28;1898;-47
2022/11/30 13:43:21;;;;;;;;;;;;;;;;;;4990459;28;2077;-47
2022/11/30 13:45:50;;;;;;;;;;;;;;;;;;4989665;28;1924;-46
2022/11/30 13:48:28;;;;;;;;;;;;;;;;;;4990318;28;1921;-45
2022/11/30 13:50:55;;;;;;;;;;;;;;;;;;4990213;28;1837;-45
2022/11/30 13:53:24;;;;;;;;;;;;;;;;;;4992491;28;1887;-45
2022/11/30 13:55:59;;;;;;;;;;;;;;;;;;4994417;28;2011;-46
2022/11/30 13:58:27;;;;;;;;;;;;;;;;;;4993724;28;2008;-46
2022/11/30 14:01:13;;;;;;;;;;;;;;;;;;4993816;28;2047;-44
2022/11/30 14:03:41;;;;;;;;;;;;;;;;;;4993908;28;2083;-46
2022/11/30 14:06:40;;;;;;;;;;;;;;;;;;4994088;28;1840;-45
2022/11/30 14:09:14;;;;;;;;;;;;;;;;;;4992790;28;1908;-43
2022/11/30 14:11:43;;;;;;;;;;;;;;;;;;4993123;28;1821;-43
2022/11/30 14:14:29;;;;;;;;;;;;;;;;;;4993138;28;1906;-46
2022/11/30 14:16:56;;;;;;;;;;;;;;;;;;4992847;28;1873;-47
2022/11/30 14:19:25;;;;;;;;;;;;;;;;;;4978785;28;2133;-45
2022/11/30 14:21:52;;;;;;;;;;;;;;;;;;4975105;28;1800;-45
2022/11/30 14:24:20;;;;;;;;;;;;;;;;;;4974822;28;2121;-45
2022/11/30 14:26:49;;;;;;;;;;;;;;;;;;4975200;28;1973;-46
2022/11/30 14:29:26;;;;;;;;;;;;;;;;;;4975225;28;2187;-44
2022/11/30 14:31:56;;;;;;;;;;;;;;;;;;4974183;28;1932;-46
2022/11/30 14:34:30;;;;;;;;;;;;;;;;;;4973328;28;2170;-46
2022/11/30 14:37:16;;;;;;;;;;;;;;;;;;4973069;28;1962;-48
2022/11/30 14:39:44;;;;;;;;;;;;;;;;;;4973019;28;1870;-46
2022/11/30 14:42:18;;;;;;;;;;;;;;;;;;4973466;28;1829;-47
2022/11/30 14:44:46;;;;;;;;;;;;;;;;;;4974304;28;1981;-47
2022/11/30 14:47:15;;;;;;;;;;;;;;;;;;4974629;28;1959;-45
2022/11/30 14:49:46;;;;;;;;;;;;;;;;;;4974198;28;1944;-44
2022/11/30 14:52:18;;;;;;;;;;;;;;;;;;4974169;28;2252;-45
2022/11/30 14:54:55;;;;;;;;;;;;;;;;;;4974160;28;4912;-45
2022/11/30 14:57:35;;;;;;;;;;;;;;;;;;4974674;28;2104;-46
2022/11/30 15:00:03;;;;;;;;;;;;;;;;;;4974050;28;2067;-46
2022/11/30 15:02:37;;;;;;;;;;;;;;;;;;4974370;28;1953;-47
2022/11/30 15:05:06;;;;;;;;;;;;;;;;;;4973904;28;2107;-47
2022/11/30 15:07:34;;;;;;;;;;;;;;;;;;4974515;28;2101;-48
2022/11/30 15:10:09;;;;;;;;;;;;;;;;;;4974366;28;2049;-45
2022/11/30 15:12:39;;;;;;;;;;;;;;;;;;4988513;28;2016;-45
2022/11/30 15:15:06;;;;;;;;;;;;;;;;;;4973749;28;2000;-46
2022/11/30 15:17:43;;;;;;;;;;;;;;;;;;4975301;28;2000;-46
2022/11/30 15:20:18;;;;;;;;;;;;;;;;;;4992980;28;1887;-45
2022/11/30 15:22:45;;;;;;;;;;;;;;;;;;4993021;28;2040;-46
2022/11/30 15:25:12;;;;;;;;;;;;;;;;;;5008117;28;1999;-45
2022/11/30 15:27:40;;;;;;;;;;;;;;;;;;4993419;28;1903;-45
2022/11/30 15:30:12;;;;;;;;;;;;;;;;;;4974876;28;2067;-45
2022/11/30 15:32:39;;;;;;;;;;;;;;;;;;4973447;28;2223;-45
2022/11/30 15:35:06;;;;;;;;;;;;;;;;;;4973916;28;2053;-46
2022/11/30 15:37:34;;;;;;;;;;;;;;;;;;4973536;28;1942;-44
2022/11/30 15:40:02;;;;;;;;;;;;;;;;;;4973343;28;2177;-44
2022/11/30 15:42:38;;;;;;;;;;;;;;;;;;4973422;28;1926;-47
2022/11/30 15:45:09;;;;;;;;;;;;;;;;;;4973420;28;2089;-46
2022/11/30 15:47:37;;;;;;;;;;;;;;;;;;4973662;28;1956;-45
2022/11/30 15:50:24;;;;;;;;;;;;;;;;;;4973332;28;2040;-46
2022/11/30 15:52:53;;;;;;;;;;;;;;;;;;4972550;28;2042;-45
2022/11/30 15:55:38;;;;;;;;;;;;;;;;;;4973128;28;2013;-46
2022/11/30 15:58:22;;;;;;;;;;;;;;;;;;4973245;28;1850;-45
2022/11/30 16:01:04;;;;;;;;;;;;;;;;;;4973580;28;2252;-44
2022/11/30 16:03:32;;;;;;;;;;;;;;;;;;4972627;28;4661;-45
2022/11/30 16:06:00;;;;;;;;;;;;;;;;;;4973179;28;1891;-44
2022/11/30 16:08:27;;;;;;;;;;;;;;;;;;4973495;28;2034;-44
2022/11/30 16:10:54;;;;;;;;;;;;;;;;;;4973026;28;2067;-45
2022/11/30 16:13:21;;;;;;;;;;;;;;;;;;4972687;28;1987;-42
2022/11/30 16:15:49;;;;;;;;;;;;;;;;;;4972316;28;2126;-45
2022/11/30 16:18:18;;;;;;;;;;;;;;;;;;4979429;28;2114;-48
2022/11/30 16:20:50;;;;;;;;;;;;;;;;;;4992391;28;1934;-46
2022/11/30 16:23:18;;;;;;;;;;;;;;;;;;4992024;28;2093;-46
2022/11/30 16:25:46;;;;;;;;;;;;;;;;;;4992400;28;2188;-46
2022/11/30 16:28:15;;;;;;;;;;;;;;;;;;4992359;28;1722;-45
2022/11/30 16:30:43;;;;;;;;;;;;;;;;;;4992041;28;1987;-46
2022/11/30 16:33:17;;;;;;;;;;;;;;;;;;4992023;28;2046;-48
2022/11/30 16:36:11;;;;;;;;;;;;;;;;;;4991518;28;2000;-45
2022/11/30 16:38:38;;;;;;;;;;;;;;;;;;4990758;28;2050;-45
2022/11/30 16:41:11;;;;;;;;;;;;;;;;;;4991999;28;2033;-46
2022/11/30 16:43:38;;;;;;;;;;;;;;;;;;4991863;28;1915;-47
2022/11/30 16:46:08;;;;;;;;;;;;;;;;;;4991879;28;2062;-45
2022/11/30 16:48:35;;;;;;;;;;;;;;;;;;4992007;28;1895;-44
2022/11/30 16:51:02;;;;;;;;;;;;;;;;;;4992033;28;2276;-46
2022/11/30 16:53:29;;;;;;;;;;;;;;;;;;4991871;28;2062;-43
2022/11/30 16:55:56;;;;;;;;;;;;;;;;;;4991724;28;1993;-45
2022/11/30 16:58:24;;;;;;;;;;;;;;;;;;4992015;28;1916;-45
2022/11/30 17:00:51;;;;;;;;;;;;;;;;;;4991854;28;1790;-46
2022/11/30 17:03:21;;;;;;;;;;;;;;;;;;4987743;28;1838;-44
2022/11/30 17:05:48;;;;;;;;;;;;;;;;;;4971898;28;1831;-44
2022/11/30 17:08:16;;;;;;;;;;;;;;;;;;4972185;28;2122;-45
2022/11/30 17:10:43;;;;;;;;;;;;;;;;;;4972338;28;2050;-45
2022/11/30 17:13:12;;;;;;;;;;;;;;;;;;4972069;28;2161;-46
2022/11/30 17:15:39;;;;;;;;;;;;;;;;;;4971720;28;2273;-46
2022/11/30 17:18:06;;;;;;;;;;;;;;;;;;4977811;28;1869;-45
2022/11/30 17:20:35;;;;;;;;;;;;;;;;;;4991458;28;1953;-46
2022/11/30 17:23:03;;;;;;;;;;;;;;;;;;4991189;28;2576;-45
2022/11/30 17:25:31;;;;;;;;;;;;;;;;;;4991050;28;1885;-47
2022/11/30 17:27:58;;;;;;;;;;;;;;;;;;4994766;28;2160;-48